Biklabito, New Mexico
Current Conditions -  °F | °C
As of 5:53 PM on Friday 24 Oct 2014 (Local Time) from KFMN Reporting Station
Clear Clear  
Wind Chill: 71°   Ceiling: Unl
Heat Index: 71°   Visibility: 10mi
Dew Point: 30°   Wind: 9mph
Humidity: 22%   Direction: 250°WSW
Pressure: 30.25"   Gusts: NA
Location:  36.3945°N, 108.769°W
Report Text: KFMN 242353Z 25008KT 10SM CLR 22/M01 A3025 RMK AO2 SLP211 T02171011 10244 20178 56006
Loading
Personal Weather Stations






























Interactive Weather Map
Tropical Storm Tracking
New forecast layout! Learn more

10-Day Weather Forecast

Advertisements
Track Severe Weather on mobile